Terminal Aerodrome Forecast
Issued by NWS

Home | Current Version | Previous Version | Text Only | Print | Product List | Glossary Off
Versions: 1 2 3 4 5 6 7 8 9 10 11 12 13 14 15

000
FTUS45 KGGW 201125
TAFOLF
TAF
KOLF 201125Z 2012/2112 25005KT P6SM BKN100
      TEMPO 2012/2014 5SM BR
     FM211100 27006KT P6SM OVC025=

USA.gov is the U.S. government's official web portal to all federal, state and local government web resources and services.